createdAt,value
2019-04-05T00:01:08.095Z,35.47
2019-04-05T00:03:36.841Z,35.17
2019-04-05T00:06:05.568Z,35.97
2019-04-05T00:08:34.304Z,33.23
2019-04-05T00:11:03.252Z,34.13
2019-04-05T00:13:32.058Z,34.07
2019-04-05T00:16:01.206Z,34.87
2019-04-05T00:18:29.937Z,33.90
2019-04-05T00:20:58.711Z,36.53
2019-04-05T00:23:27.421Z,37.00
2019-04-05T00:25:56.790Z,36.40
2019-04-05T00:28:25.499Z,34.17
2019-04-05T00:30:54.227Z,35.93
2019-04-05T00:33:22.955Z,35.50
2019-04-05T00:35:51.730Z,37.77
2019-04-05T00:38:20.714Z,36.53
2019-04-05T00:40:49.506Z,35.97
2019-04-05T00:43:18.355Z,36.27
2019-04-05T00:45:47.231Z,34.83
2019-04-05T00:48:16.009Z,37.40
2019-04-05T00:50:44.879Z,41.63
2019-04-05T00:53:13.586Z,46.27
2019-04-05T00:55:42.422Z,37.97
2019-04-05T00:58:11.260Z,35.00
2019-04-05T01:00:40.082Z,41.87
2019-04-05T01:03:08.937Z,41.57
2019-04-05T01:05:37.812Z,41.87
2019-04-05T01:08:06.585Z,42.67
2019-04-05T01:10:35.454Z,41.20
2019-04-05T01:13:04.161Z,44.90
2019-04-05T01:15:40.879Z,41.17
2019-04-05T01:18:03.527Z,44.63
2019-04-05T01:20:34.677Z,51.03
2019-04-05T01:23:03.522Z,46.53
2019-04-05T01:25:34.251Z,46.43
2019-04-05T01:28:03.136Z,42.43
2019-04-05T01:30:32.090Z,45.97
2019-04-05T01:33:00.954Z,43.77
2019-04-05T01:35:29.687Z,42.67
2019-04-05T01:37:58.619Z,44.40
2019-04-05T01:40:29.594Z,39.87
2019-04-05T01:42:58.465Z,43.20
2019-04-05T01:45:27.246Z,41.13
2019-04-05T01:47:56.113Z,44.07
2019-04-05T01:50:24.964Z,42.07
2019-04-05T01:52:53.863Z,43.97
2019-04-05T01:55:22.651Z,45.47
2019-04-05T01:57:51.524Z,42.00
2019-04-05T02:00:20.427Z,49.87
2019-04-05T02:02:49.290Z,38.60
2019-04-05T02:05:18.233Z,42.87
2019-04-05T02:07:47.107Z,42.47
2019-04-05T02:10:16.054Z,43.77
2019-04-05T02:12:44.946Z,42.63
2019-04-05T02:15:27.848Z,42.13
2019-04-05T02:17:57.068Z,41.47
2019-04-05T02:20:26.314Z,40.37
2019-04-05T02:22:55.572Z,44.57
2019-04-05T02:25:24.482Z,52.50
2019-04-05T02:27:53.359Z,47.47
2019-04-05T02:30:22.311Z,48.70
2019-04-05T02:32:51.109Z,44.60
2019-04-05T02:35:19.950Z,50.77
2019-04-05T02:37:48.834Z,47.37
2019-04-05T02:40:19.242Z,140.93
2019-04-05T02:42:50.391Z,112.87
2019-04-05T02:45:19.471Z,101.40
2019-04-05T02:47:54.048Z,96.13
2019-04-05T02:50:25.853Z,73.20
2019-04-05T02:52:57.666Z,64.40
2019-04-05T02:55:28.517Z,50.60
2019-04-05T02:58:00.122Z,71.10
2019-04-05T03:00:29.961Z,71.57
2019-04-05T03:02:58.803Z,59.20
2019-04-05T03:05:27.921Z,63.83
2019-04-05T03:07:56.881Z,63.33
2019-04-05T03:10:52.499Z,62.40
2019-04-05T03:13:24.022Z,63.13
2019-04-05T03:15:56.128Z,55.00
2019-04-05T03:18:27.639Z,56.50
2019-04-05T03:20:59.441Z,52.30
2019-04-05T03:23:31.499Z,56.60
2019-04-05T03:26:03.553Z,52.93
2019-04-05T03:28:35.092Z,57.60
2019-04-05T03:31:04.600Z,56.43
2019-04-05T03:33:33.999Z,59.27
2019-04-05T03:36:02.901Z,59.03
2019-04-05T03:38:31.790Z,66.30
2019-04-05T03:41:01.175Z,58.03
2019-04-05T03:43:30.189Z,60.03
2019-04-05T03:45:59.066Z,63.10
2019-04-05T03:48:28.076Z,57.20
2019-04-05T03:50:56.950Z,56.60
2019-04-05T03:53:25.976Z,55.43
2019-04-05T03:55:55.478Z,56.17
2019-04-05T03:58:24.273Z,64.70
2019-04-05T04:00:54.008Z,58.63
2019-04-05T04:03:22.891Z,58.27
2019-04-05T04:05:51.861Z,62.67
2019-04-05T04:08:23.425Z,60.67
2019-04-05T04:10:52.695Z,63.10
2019-04-05T04:13:21.535Z,56.93
2019-04-05T04:15:51.020Z,63.07
2019-04-05T04:18:19.786Z,66.83
2019-04-05T04:20:51.061Z,71.17
2019-04-05T04:23:22.847Z,59.20
2019-04-05T04:25:51.722Z,64.60
2019-04-05T04:28:20.763Z,69.87
2019-04-05T04:30:49.749Z,72.95
2019-04-05T04:33:18.597Z,67.40
2019-04-05T04:35:47.811Z,72.50
2019-04-05T04:38:17.062Z,69.10
2019-04-05T04:40:46.008Z,62.00
2019-04-05T04:43:14.985Z,66.70
2019-04-05T04:45:43.820Z,68.03
2019-04-05T04:48:12.686Z,67.40
2019-04-05T04:50:41.939Z,66.17
2019-04-05T04:53:10.913Z,60.30
2019-04-05T04:55:39.753Z,66.97
2019-04-05T04:58:08.929Z,71.30
2019-04-05T05:00:37.773Z,67.87
2019-04-05T05:03:06.759Z,75.42
2019-04-05T05:05:35.719Z,72.17
2019-04-05T05:08:04.849Z,64.63
2019-04-05T05:10:33.770Z,63.17
2019-04-05T05:13:02.630Z,86.90
2019-04-05T05:15:31.478Z,79.37
2019-04-05T05:18:00.544Z,67.90
2019-04-05T05:20:29.383Z,71.13
2019-04-05T05:22:58.467Z,81.80
2019-04-05T05:25:27.478Z,67.43
2019-04-05T05:27:56.456Z,72.10
2019-04-05T05:30:26.118Z,76.83
2019-04-05T05:32:55.051Z,74.53
2019-04-05T05:35:24.003Z,73.83
2019-04-05T05:37:53.139Z,74.97
2019-04-05T05:40:34.080Z,71.13
2019-04-05T05:42:52.561Z,75.27
2019-04-05T05:45:21.421Z,74.47
2019-04-05T05:47:52.044Z,73.80
2019-04-05T05:50:20.835Z,65.33
2019-04-05T05:52:50.111Z,68.80
2019-04-05T05:55:18.821Z,70.07
2019-04-05T05:57:47.624Z,71.63
2019-04-05T06:00:16.494Z,65.10
2019-04-05T06:02:48.168Z,76.57
2019-04-05T06:05:15.784Z,70.00
2019-04-05T06:07:44.562Z,65.50
2019-04-05T06:10:13.443Z,67.53
2019-04-05T06:12:42.219Z,67.60
2019-04-05T06:15:11.288Z,68.80
2019-04-05T06:17:40.060Z,67.10
2019-04-05T06:20:09.241Z,65.33
2019-04-05T06:22:38.014Z,68.30
2019-04-05T06:25:06.982Z,65.03
2019-04-05T06:27:35.709Z,66.73
2019-04-05T06:30:06.148Z,68.50
2019-04-05T06:32:34.921Z,62.83
2019-04-05T06:35:05.697Z,62.43
2019-04-05T06:37:34.404Z,55.60
2019-04-05T06:40:05.800Z,56.80
2019-04-05T06:42:34.580Z,60.07
2019-04-05T06:45:04.622Z,60.33
2019-04-05T06:47:33.359Z,58.60
2019-04-05T06:50:02.408Z,59.47
2019-04-05T06:52:31.139Z,63.37
2019-04-05T06:54:59.855Z,57.83
2019-04-05T06:57:28.658Z,63.33
2019-04-05T06:59:57.391Z,56.93
2019-04-05T07:02:26.255Z,58.67
2019-04-05T07:04:54.972Z,56.23
2019-04-05T07:07:23.705Z,54.93
2019-04-05T07:09:52.482Z,56.00
2019-04-05T07:12:21.238Z,50.47
2019-04-05T07:14:49.948Z,49.77
2019-04-05T07:17:18.678Z,50.33
2019-04-05T07:19:47.397Z,46.53
2019-04-05T07:22:16.214Z,47.83
2019-04-05T07:24:44.940Z,44.17
2019-04-05T07:27:13.805Z,41.97
2019-04-05T07:29:42.515Z,40.60
2019-04-05T07:32:11.311Z,38.07
2019-04-05T07:34:40.092Z,34.90
2019-04-05T07:37:08.849Z,36.70
2019-04-05T07:39:37.546Z,36.37
2019-04-05T07:42:06.416Z,36.53
2019-04-05T07:44:35.191Z,34.77
2019-04-05T07:47:03.991Z,35.70
2019-04-05T07:49:32.709Z,34.03
2019-04-05T07:52:01.482Z,28.00
2019-04-05T07:54:30.230Z,27.23
2019-04-05T07:56:58.947Z,31.43
2019-04-05T07:59:27.679Z,34.63
2019-04-05T08:01:56.460Z,34.33
2019-04-05T08:04:25.292Z,32.20
2019-04-05T08:06:56.727Z,32.80
2019-04-05T08:09:26.089Z,28.67
2019-04-05T08:11:55.351Z,28.40
2019-04-05T08:14:25.437Z,28.17
2019-04-05T08:16:54.276Z,26.37
2019-04-05T08:19:23.082Z,25.77
2019-04-05T08:21:51.791Z,29.73
2019-04-05T08:24:20.525Z,34.47
2019-04-05T08:26:49.301Z,43.27
2019-04-05T08:29:18.086Z,42.17
2019-04-05T08:31:46.799Z,42.37
2019-04-05T08:34:15.545Z,40.83
2019-04-05T08:36:44.323Z,41.67
2019-04-05T08:39:13.142Z,47.80
2019-04-05T08:41:41.853Z,44.63
2019-04-05T08:44:10.799Z,37.50
2019-04-05T08:46:39.577Z,34.67
2019-04-05T08:49:10.853Z,32.47
2019-04-05T08:51:38.811Z,28.23
2019-04-05T08:54:07.547Z,28.27
2019-04-05T08:56:36.269Z,28.17
2019-04-05T08:59:05.000Z,25.13
2019-04-05T09:01:33.810Z,25.73
2019-04-05T09:04:02.967Z,24.97
2019-04-05T09:06:31.726Z,23.17
2019-04-05T09:09:00.443Z,27.07
2019-04-05T09:11:29.276Z,28.10
2019-04-05T09:13:58.130Z,30.03
2019-04-05T09:16:26.874Z,25.13
2019-04-05T09:18:55.730Z,24.90
2019-04-05T09:21:24.470Z,21.67
2019-04-05T09:23:53.253Z,23.63
2019-04-05T09:26:22.056Z,24.80
2019-04-05T09:28:50.779Z,23.67
2019-04-05T09:31:19.704Z,28.93
2019-04-05T09:33:48.621Z,23.43
2019-04-05T09:36:17.450Z,25.17
2019-04-05T09:38:46.235Z,24.03
2019-04-05T09:41:14.980Z,23.53
2019-04-05T09:43:43.700Z,23.33
2019-04-05T09:46:12.439Z,25.63
2019-04-05T09:48:41.227Z,24.87
2019-04-05T09:51:10.061Z,21.10
2019-04-05T09:53:38.783Z,22.30
2019-04-05T09:56:07.512Z,20.80
2019-04-05T09:58:36.300Z,19.70
2019-04-05T10:01:05.176Z,18.57
2019-04-05T10:03:33.957Z,22.00
2019-04-05T10:06:02.740Z,20.57
2019-04-05T10:08:31.640Z,21.03
2019-04-05T10:11:00.596Z,20.73
2019-04-05T10:13:29.330Z,18.33
2019-04-05T10:15:58.111Z,20.27
2019-04-05T10:18:26.847Z,17.47
2019-04-05T10:20:55.596Z,16.30
2019-04-05T10:23:24.447Z,16.23
2019-04-05T10:25:53.187Z,17.37
2019-04-05T10:28:22.003Z,17.70
2019-04-05T10:30:52.063Z,17.67
2019-04-05T10:33:21.051Z,19.00
2019-04-05T10:35:49.838Z,15.20
2019-04-05T10:38:18.567Z,18.47
2019-04-05T10:40:47.352Z,16.37
2019-04-05T10:43:16.138Z,19.27
2019-04-05T10:45:45.365Z,18.63
2019-04-05T10:48:14.161Z,21.30
2019-04-05T10:50:43.010Z,17.73
2019-04-05T10:53:11.826Z,16.83
2019-04-05T10:55:40.533Z,18.10
2019-04-05T10:58:10.324Z,17.20
2019-04-05T11:00:39.233Z,16.80
2019-04-05T11:03:08.026Z,18.53
2019-04-05T11:05:36.785Z,15.43
2019-04-05T11:08:05.325Z,16.93
2019-04-05T11:10:33.619Z,19.37
2019-04-05T11:13:01.898Z,16.10
2019-04-05T11:15:31.026Z,18.80
2019-04-05T11:17:59.578Z,17.83
2019-04-05T11:20:27.898Z,18.80
2019-04-05T11:22:56.498Z,16.43
2019-04-05T11:25:24.858Z,17.20
2019-04-05T11:27:53.155Z,15.47
2019-04-05T11:30:39.237Z,16.07
2019-04-05T11:33:07.743Z,16.43
2019-04-05T11:35:36.227Z,19.70
2019-04-05T11:38:04.688Z,15.77
2019-04-05T11:40:33.467Z,17.80
2019-04-05T11:43:02.140Z,20.33
2019-04-05T11:45:32.037Z,14.83
2019-04-05T11:48:01.876Z,15.33
2019-04-05T11:50:34.784Z,16.37
2019-04-05T11:53:00.497Z,15.77
2019-04-05T11:55:28.890Z,15.60
2019-04-05T11:57:57.268Z,18.67
2019-04-05T12:00:25.622Z,17.93
2019-04-05T12:02:53.918Z,15.97
2019-04-05T12:05:22.956Z,16.37
2019-04-05T12:07:52.207Z,15.57
2019-04-05T12:10:20.592Z,14.27
2019-04-05T12:12:49.000Z,14.93
2019-04-05T12:15:17.380Z,14.00
2019-04-05T12:17:45.740Z,14.30
2019-04-05T12:20:14.220Z,14.60
2019-04-05T12:22:42.498Z,18.13
2019-04-05T12:25:12.347Z,14.90
2019-04-05T12:27:40.642Z,19.27
2019-04-05T12:30:09.188Z,18.00
2019-04-05T12:32:41.350Z,18.03
2019-04-05T12:35:08.497Z,16.83
2019-04-05T12:37:49.172Z,17.97
2019-04-05T12:40:10.270Z,15.63
2019-04-05T12:42:38.326Z,15.67
2019-04-05T12:45:06.704Z,15.53
2019-04-05T12:47:35.069Z,15.07
2019-04-05T12:50:04.888Z,14.03
2019-04-05T12:52:33.210Z,12.87
2019-04-05T12:55:01.630Z,12.97
2019-04-05T12:57:29.999Z,10.20
2019-04-05T12:59:58.306Z,11.37
2019-04-05T13:02:33.407Z,12.23
2019-04-05T13:04:56.727Z,11.57
2019-04-05T13:07:25.048Z,12.00
2019-04-05T13:09:55.056Z,12.17
2019-04-05T13:12:26.159Z,12.53
2019-04-05T13:14:55.349Z,13.70
2019-04-05T13:17:23.390Z,13.43
2019-04-05T13:19:51.757Z,13.70
2019-04-05T13:22:22.595Z,12.93
2019-04-05T13:24:50.096Z,14.00
2019-04-05T13:27:18.394Z,13.60
2019-04-05T13:29:47.348Z,13.90
2019-04-05T13:32:17.188Z,15.20
2019-04-05T13:34:46.564Z,16.83
2019-04-05T13:37:20.631Z,17.90
2019-04-05T13:39:45.021Z,15.87
2019-04-05T13:42:13.377Z,17.03
2019-04-05T13:44:41.699Z,17.67
2019-04-05T13:47:10.164Z,16.43
2019-04-05T13:49:40.516Z,17.60
2019-04-05T13:52:09.620Z,18.73
2019-04-05T13:54:40.327Z,18.77
2019-04-05T13:57:10.518Z,19.93
2019-04-05T13:59:38.524Z,19.20
2019-04-05T14:02:06.977Z,20.50
2019-04-05T14:04:35.384Z,18.90
2019-04-05T14:07:04.005Z,15.20
2019-04-05T14:09:32.397Z,19.63
2019-04-05T14:12:00.757Z,18.20
2019-04-05T14:14:29.077Z,18.57
2019-04-05T14:16:57.409Z,19.10
2019-04-05T14:19:28.637Z,21.00
2019-04-05T14:22:07.737Z,21.00
2019-04-05T14:24:25.811Z,19.57
2019-04-05T14:26:54.129Z,16.53
2019-04-05T14:29:22.515Z,20.13
2019-04-05T14:31:50.846Z,19.30
2019-04-05T14:34:23.431Z,19.83
2019-04-05T14:36:51.978Z,20.43
2019-04-05T14:39:20.224Z,17.10
2019-04-05T14:41:48.524Z,20.80
2019-04-05T14:44:16.904Z,22.10
2019-04-05T14:46:45.291Z,22.23
2019-04-05T14:49:13.633Z,22.30
2019-04-05T14:51:52.620Z,23.00
2019-04-05T14:54:12.064Z,25.67
2019-04-05T14:56:40.443Z,23.20
2019-04-05T14:59:08.802Z,25.13
2019-04-05T15:01:37.136Z,24.10
2019-04-05T15:04:05.495Z,22.60
2019-04-05T15:06:33.795Z,21.93
2019-04-05T15:09:02.237Z,20.93
2019-04-05T15:11:30.626Z,21.07
2019-04-05T15:13:58.946Z,22.23
2019-04-05T15:16:27.255Z,22.73
2019-04-05T15:18:55.567Z,24.30
2019-04-05T15:21:24.055Z,23.37
2019-04-05T15:23:52.354Z,20.93
2019-04-05T15:26:21.402Z,22.33
2019-04-05T15:28:49.826Z,23.67
2019-04-05T15:31:18.113Z,22.60
2019-04-05T15:33:46.432Z,21.00
2019-04-05T15:36:14.721Z,24.63
2019-04-05T15:38:43.061Z,23.63
2019-04-05T15:41:11.386Z,24.70
2019-04-05T15:43:39.688Z,25.77
2019-04-05T15:46:07.984Z,24.00
2019-04-05T15:48:36.291Z,28.90
2019-04-05T15:51:04.682Z,27.83
2019-04-05T15:53:33.063Z,29.27
2019-04-05T15:56:03.890Z,27.80
2019-04-05T15:58:31.489Z,29.10
2019-04-05T16:01:04.177Z,26.40
2019-04-05T16:03:32.243Z,25.60
2019-04-05T16:06:01.448Z,26.07
2019-04-05T16:08:29.828Z,26.73
2019-04-05T16:10:58.123Z,25.03
2019-04-05T16:13:26.509Z,29.25
2019-04-05T16:15:54.882Z,26.93
2019-04-05T16:18:23.299Z,26.70
2019-04-05T16:20:51.633Z,27.63
2019-04-05T16:23:20.026Z,26.90
2019-04-05T16:25:48.304Z,26.60
2019-04-05T16:28:16.613Z,28.93
2019-04-05T16:30:45.365Z,30.13
2019-04-05T16:33:13.788Z,30.97
2019-04-05T16:35:42.147Z,28.73
2019-04-05T16:38:10.532Z,31.63
2019-04-05T16:40:38.851Z,29.43
2019-04-05T16:43:07.139Z,31.77
2019-04-05T16:45:38.343Z,30.67
2019-04-05T16:48:05.556Z,31.10
2019-04-05T16:50:33.928Z,27.30
2019-04-05T16:53:02.204Z,29.70
2019-04-05T16:55:30.605Z,30.43
2019-04-05T16:57:59.023Z,35.53
2019-04-05T17:00:27.460Z,33.45
2019-04-05T17:02:55.823Z,31.03
2019-04-05T17:05:24.228Z,29.83
2019-04-05T17:07:52.555Z,30.77
2019-04-05T17:10:20.947Z,29.97
2019-04-05T17:12:49.343Z,30.40
2019-04-05T17:15:17.771Z,31.50
2019-04-05T17:17:46.147Z,30.07
2019-04-05T17:20:14.544Z,32.53
2019-04-05T17:22:42.893Z,32.13
2019-04-05T17:25:11.369Z,33.20
2019-04-05T17:27:39.710Z,30.67
2019-04-05T17:30:08.137Z,32.00
2019-04-05T17:32:36.443Z,36.63
2019-04-05T17:35:06.131Z,31.63
2019-04-05T17:37:34.435Z,31.33
2019-04-05T17:40:04.292Z,28.83
2019-04-05T17:42:34.790Z,35.40
2019-04-05T17:45:03.961Z,34.57
2019-04-05T17:47:32.342Z,30.97
2019-04-05T17:50:00.628Z,35.10
2019-04-05T17:52:29.051Z,39.60
2019-04-05T17:54:57.468Z,36.53
2019-04-05T17:57:25.840Z,38.10
2019-04-05T17:59:54.282Z,38.43
2019-04-05T18:02:22.738Z,36.67
2019-04-05T18:04:51.041Z,39.73
2019-04-05T18:07:19.426Z,38.40
2019-04-05T18:09:47.715Z,39.10
2019-04-05T18:12:16.021Z,40.93
2019-04-05T18:14:44.412Z,42.40
2019-04-05T18:17:13.007Z,42.00
2019-04-05T18:19:41.343Z,42.10
2019-04-05T18:22:09.672Z,41.43
2019-04-05T18:24:38.029Z,44.03
2019-04-05T18:27:06.345Z,47.43
2019-04-05T18:29:34.703Z,52.87
2019-04-05T18:32:03.079Z,46.87
2019-04-05T18:34:31.407Z,52.00
2019-04-05T18:36:59.840Z,49.17
2019-04-05T18:39:28.119Z,45.27
2019-04-05T18:41:56.425Z,49.37
2019-04-05T18:44:24.730Z,57.83
2019-04-05T18:46:53.086Z,51.70
2019-04-05T18:49:21.393Z,49.80
2019-04-05T18:51:49.696Z,55.83
2019-04-05T18:54:18.141Z,61.87
2019-04-05T18:56:46.425Z,55.83
2019-04-05T18:59:14.812Z,54.33
2019-04-05T19:01:43.189Z,50.00
2019-04-05T19:04:11.582Z,55.13
2019-04-05T19:06:39.860Z,59.23
2019-04-05T19:09:08.284Z,59.40
2019-04-05T19:11:36.606Z,52.93
2019-04-05T19:14:05.023Z,50.47
2019-04-05T19:16:37.375Z,53.80
2019-04-05T19:19:09.241Z,51.97
2019-04-05T19:21:41.679Z,50.07
2019-04-05T19:24:12.434Z,54.57
2019-04-05T19:26:45.133Z,45.93
2019-04-05T19:29:14.093Z,44.53
2019-04-05T19:49:12.527Z,48.40
2019-04-05T19:51:40.908Z,55.60
2019-04-05T19:54:09.201Z,48.47
2019-04-05T19:56:37.521Z,50.67
2019-04-05T19:59:05.866Z,53.47
2019-04-05T20:01:34.248Z,52.13
2019-04-05T20:04:02.594Z,50.63
2019-04-05T20:06:31.016Z,50.40
2019-04-05T20:08:59.361Z,55.47
2019-04-05T20:11:27.688Z,52.90
2019-04-05T20:13:56.032Z,47.63
2019-04-05T20:16:24.335Z,51.87
2019-04-05T20:18:52.619Z,51.67
2019-04-05T20:21:20.919Z,52.70
2019-04-05T20:23:49.296Z,49.27
2019-04-05T20:26:17.751Z,52.40
2019-04-05T20:28:46.029Z,49.03
2019-04-05T20:31:14.390Z,48.53
2019-04-05T20:33:42.676Z,47.50
2019-04-05T20:36:10.957Z,52.00
2019-04-05T20:38:39.259Z,50.87
2019-04-05T20:41:07.639Z,46.57
2019-04-05T20:43:35.952Z,41.43
2019-04-05T20:46:04.306Z,47.83
2019-04-05T20:48:32.616Z,42.47
2019-04-05T20:51:00.894Z,46.40
2019-04-05T20:53:29.219Z,48.67
2019-04-05T20:55:57.507Z,45.53
2019-04-05T20:58:25.903Z,46.33
2019-04-05T21:00:54.188Z,50.93
2019-04-05T21:03:22.584Z,54.73
2019-04-05T21:05:50.857Z,49.37
2019-04-05T21:08:19.226Z,53.67
2019-04-05T21:10:47.512Z,49.73
2019-04-05T21:13:15.814Z,57.43
2019-04-05T21:15:44.089Z,54.43
2019-04-05T21:18:12.437Z,53.50
2019-04-05T21:20:40.749Z,56.43
2019-04-05T21:23:09.067Z,57.67
2019-04-05T21:25:37.339Z,53.50
2019-04-05T21:28:05.661Z,58.23
2019-04-05T21:30:34.010Z,56.00
2019-04-05T21:33:02.375Z,55.37
2019-04-05T21:35:30.727Z,58.40
2019-04-05T21:37:59.042Z,57.40
2019-04-05T21:40:27.409Z,53.33
2019-04-05T21:42:55.686Z,52.20
2019-04-05T21:45:24.021Z,55.67
2019-04-05T21:47:52.320Z,54.30
2019-04-05T21:50:20.691Z,57.43
2019-04-05T21:52:48.965Z,58.03
2019-04-05T21:55:17.268Z,60.70
2019-04-05T21:57:45.559Z,57.40
2019-04-05T22:00:15.426Z,60.00
2019-04-05T22:02:43.696Z,62.63
2019-04-05T22:05:12.160Z,58.37
2019-04-05T22:07:40.445Z,57.90
2019-04-05T22:10:08.829Z,58.10
2019-04-05T22:12:37.109Z,58.90
2019-04-05T22:15:05.475Z,60.10
2019-04-05T22:17:33.751Z,56.53
2019-04-05T22:20:02.059Z,57.40
2019-04-05T22:22:30.337Z,61.53
2019-04-05T22:24:59.687Z,52.40
2019-04-05T22:27:28.105Z,60.93
2019-04-05T22:29:56.569Z,62.90
2019-04-05T22:32:24.857Z,57.23
2019-04-05T22:34:53.239Z,61.03
2019-04-05T22:37:21.530Z,60.43
2019-04-05T22:39:49.820Z,65.70
2019-04-05T22:42:18.118Z,65.93
2019-04-05T22:44:46.395Z,53.97
2019-04-05T22:47:14.699Z,61.17
2019-04-05T22:49:42.979Z,62.20
2019-04-05T22:52:11.304Z,67.33
2019-04-05T22:54:39.571Z,69.23
2019-04-05T22:57:07.882Z,62.93
2019-04-05T22:59:36.158Z,59.77
2019-04-05T23:02:04.538Z,66.27
2019-04-05T23:04:32.820Z,57.77
2019-04-05T23:07:01.123Z,69.40
2019-04-05T23:09:29.446Z,64.57
2019-04-05T23:11:57.806Z,62.10
2019-04-05T23:14:26.071Z,68.27
2019-04-05T23:16:54.358Z,57.57
2019-04-05T23:19:22.719Z,64.73
2019-04-05T23:21:51.013Z,65.57
2019-04-05T23:24:19.375Z,61.70
2019-04-05T23:26:47.656Z,69.60
2019-04-05T23:29:15.956Z,65.73
2019-04-05T23:31:44.236Z,69.97
2019-04-05T23:34:12.532Z,63.93
2019-04-05T23:36:40.811Z,69.60
2019-04-05T23:39:09.108Z,66.57
2019-04-05T23:41:37.463Z,67.47
2019-04-05T23:44:05.772Z,64.70
2019-04-05T23:46:34.043Z,69.13
2019-04-05T23:49:02.352Z,71.03
2019-04-05T23:51:30.706Z,66.57
2019-04-05T23:53:59.163Z,68.47
2019-04-05T23:56:27.450Z,68.50
2019-04-05T23:58:55.831Z,73.43
